Aeroporto :
LOGIN :

Iscrizione | Disclaimer

   EN    FR    IT 

 










Sommario :    VFR   VFR Marginale   IFR   IFR Intensivo   IFR Molto Intensivo
Visibilità : 
Base nubi : 
>= 8 km
>= 3000ft
5 / 8 km
1000 / 3000 ft
1500m / 5 km
500 / 1000 ft
800 / 1500m
200 / 500 ft
< 800m
< 200 ft
Simboli :   Temporali  Nebbia  Neve Forte  Precipitazioni Forti  Vento > 20 kt
SIGMETs :   Varie  Temporali  Ghiacco  Turbolenza  Onda orograficha  Ceneri Vulcaniche






- Altitudine del aeroporto : 352 ft
- Codice IATA : KSD


ESOK - Karlstad

ULTIMO METAR :
  • 301920Z AUTO 34003KT 9999 NCD M03/M12 Q1029

METARs OBSOLETI :
  • 301850Z AUTO 34003KT 9999 NCD M02/M11 Q1029
  • 301820Z AUTO 33002KT 9999 NCD M01/M13 Q1028
  • 301750Z AUTO 01007KT 9999 NCD 00/M13 Q1028
  • 301720Z AUTO 01006KT 9999 NCD 02/M13 Q1028
  • 301650Z AUTO 02009KT 9999 FEW072/// 03/M13 Q1027

Previsioni scadute.



MetMap, La meteo Aeronautica in un colpo d'occhio ! - Copyright ORBIFLY Dicembre 2007 - Disclaimer

ORBIFLY MET'MAP TEAM :

Programmazione e sviluppo : Alexandra Zaïnal
Concezione : Baudouin d'Aumeries
Aiuto per la programmazione : Marc-Olivier Méhu
Supporto tecnico e logistico : Manuel Goepfert
Aiuto per la traduzione : Arnaldo La Scala

Contatto : metmap@orbifly.com




FONTI E CREDITI :

   NOAA